createdAt,value
2018-06-13T00:01:16.016Z,90.58
2018-06-13T00:03:46.167Z,90.92
2018-06-13T00:06:16.528Z,91.12
2018-06-13T00:08:46.499Z,91.23
2018-06-13T00:11:16.634Z,91.49
2018-06-13T00:13:46.527Z,91.60
2018-06-13T00:16:16.559Z,91.47
2018-06-13T00:18:46.621Z,91.65
2018-06-13T00:21:16.562Z,91.19
2018-06-13T00:23:46.562Z,90.99
2018-06-13T00:26:16.624Z,91.07
2018-06-13T00:28:46.915Z,91.16
2018-06-13T00:31:16.825Z,91.22
2018-06-13T00:33:47.151Z,91.30
2018-06-13T00:36:17.295Z,91.32
2018-06-13T00:38:47.553Z,91.24
2018-06-13T00:41:17.537Z,91.08
2018-06-13T00:43:47.939Z,91.08
2018-06-13T00:46:18.277Z,90.56
2018-06-13T00:48:48.718Z,89.97
2018-06-13T00:51:18.983Z,89.59
2018-06-13T00:53:49.204Z,89.44
2018-06-13T00:56:32.705Z,89.26
2018-06-13T00:59:03.632Z,89.17
2018-06-13T01:01:33.804Z,89.63
2018-06-13T01:04:03.786Z,90.38
2018-06-13T01:06:33.727Z,90.35
2018-06-13T01:09:04.279Z,89.89
2018-06-13T01:11:34.231Z,89.87
2018-06-13T01:14:04.349Z,89.99
2018-06-13T01:16:34.461Z,90.30
2018-06-13T01:19:04.485Z,90.15
2018-06-13T01:21:34.642Z,90.15
2018-06-13T01:24:04.614Z,89.76
2018-06-13T01:26:34.714Z,90.00
2018-06-13T01:29:04.782Z,89.91
2018-06-13T01:31:34.965Z,89.92
2018-06-13T01:34:04.957Z,89.84
2018-06-13T01:36:34.996Z,89.08
2018-06-13T01:39:06.876Z,89.50
2018-06-13T01:41:36.955Z,90.17
2018-06-13T01:44:07.069Z,90.09
2018-06-13T01:46:37.217Z,90.14
2018-06-13T01:49:07.381Z,90.44
2018-06-13T01:51:37.677Z,90.24
2018-06-13T01:54:07.811Z,89.96
2018-06-13T01:56:38.313Z,89.74
2018-06-13T01:59:08.544Z,90.18
2018-06-13T02:01:38.495Z,89.61
2018-06-13T02:04:08.718Z,89.79
2018-06-13T02:06:39.016Z,89.83
2018-06-13T02:09:09.305Z,89.96
2018-06-13T02:11:39.448Z,89.38
2018-06-13T02:14:11.350Z,90.03
2018-06-13T02:16:42.369Z,89.80
2018-06-13T02:19:12.384Z,89.62
2018-06-13T02:21:42.615Z,89.59
2018-06-13T02:24:12.919Z,89.30
2018-06-13T02:26:43.087Z,89.44
2018-06-13T02:29:13.154Z,89.76
2018-06-13T02:31:43.177Z,89.05
2018-06-13T02:34:13.410Z,89.59
2018-06-13T02:36:43.416Z,89.32
2018-06-13T02:39:15.301Z,88.97
2018-06-13T02:41:45.827Z,89.06
2018-06-13T02:44:16.052Z,88.68
2018-06-13T02:46:46.299Z,89.11
2018-06-13T02:49:16.353Z,88.89
2018-06-13T02:51:46.465Z,88.82
2018-06-13T02:54:16.612Z,88.66
2018-06-13T02:56:46.739Z,88.82
2018-06-13T02:59:16.825Z,88.42
2018-06-13T03:01:46.773Z,88.55
2018-06-13T03:04:16.977Z,88.11
2018-06-13T03:06:47.107Z,88.55
2018-06-13T03:09:17.037Z,88.39
2018-06-13T03:11:47.239Z,88.48
2018-06-13T03:14:17.679Z,88.16
2018-06-13T03:16:47.712Z,88.83
2018-06-13T03:19:17.630Z,87.95
2018-06-13T03:21:47.730Z,87.88
2018-06-13T03:24:17.821Z,87.62
2018-06-13T03:26:47.676Z,87.37
2018-06-13T03:29:17.791Z,87.09
2018-06-13T03:31:47.806Z,87.21
2018-06-13T03:34:17.716Z,86.75
2018-06-13T03:36:48.039Z,86.79
2018-06-13T03:39:18.082Z,86.96
2018-06-13T03:41:48.091Z,86.82
2018-06-13T03:44:18.209Z,86.50
2018-06-13T03:46:48.476Z,86.65
2018-06-13T03:49:18.685Z,86.30
2018-06-13T03:51:48.774Z,86.45
2018-06-13T03:54:19.073Z,86.29
2018-06-13T03:56:49.668Z,86.58
2018-06-13T03:59:19.531Z,86.63
2018-06-13T04:01:49.595Z,86.94
2018-06-13T04:04:19.705Z,85.87
2018-06-13T04:06:49.831Z,86.31
2018-06-13T04:09:19.750Z,86.04
2018-06-13T04:11:49.869Z,85.96
2018-06-13T04:14:20.062Z,86.02
2018-06-13T04:16:49.990Z,85.38
2018-06-13T04:19:20.437Z,85.62
2018-06-13T04:21:51.430Z,85.87
2018-06-13T04:24:21.523Z,85.40
2018-06-13T04:26:51.426Z,85.70
2018-06-13T04:29:21.445Z,85.11
2018-06-13T04:31:51.655Z,85.25
2018-06-13T04:34:21.877Z,84.44
2018-06-13T04:36:52.248Z,84.69
2018-06-13T04:39:22.410Z,83.36
2018-06-13T04:41:52.489Z,84.04
2018-06-13T04:44:22.324Z,83.04
2018-06-13T04:46:52.483Z,82.82
2018-06-13T04:49:22.462Z,82.21
2018-06-13T04:51:52.442Z,82.00
2018-06-13T04:54:23.652Z,82.02
2018-06-13T04:56:54.128Z,81.77
2018-06-13T04:59:24.018Z,81.10
2018-06-13T05:01:54.526Z,80.51
2018-06-13T05:04:24.517Z,80.73
2018-06-13T05:06:54.666Z,81.50
2018-06-13T05:09:24.758Z,81.94
2018-06-13T05:11:54.793Z,81.63
2018-06-13T05:14:25.434Z,81.59
2018-06-13T05:16:56.383Z,81.34
2018-06-13T05:19:26.768Z,80.42
2018-06-13T05:21:56.871Z,79.85
2018-06-13T05:24:26.964Z,79.79
2018-06-13T05:26:57.039Z,79.10
2018-06-13T05:29:27.234Z,79.79
2018-06-13T05:31:57.419Z,80.75
2018-06-13T05:34:27.514Z,79.64
2018-06-13T05:36:57.779Z,78.54
2018-06-13T05:39:28.180Z,79.05
2018-06-13T05:41:58.236Z,78.71
2018-06-13T05:44:28.737Z,78.46
2018-06-13T05:46:59.094Z,79.25
2018-06-13T05:49:29.291Z,78.63
2018-06-13T05:51:59.504Z,78.32
2018-06-13T05:54:29.409Z,77.66
2018-06-13T05:56:59.626Z,79.15
2018-06-13T06:00:14.694Z,77.81
2018-06-13T06:02:45.160Z,78.47
2018-06-13T06:05:15.241Z,77.98
2018-06-13T06:07:45.188Z,77.58
2018-06-13T06:10:15.350Z,76.73
2018-06-13T06:12:45.623Z,77.54
2018-06-13T06:15:16.612Z,76.72
2018-06-13T06:17:46.891Z,76.63
2018-06-13T06:20:16.996Z,75.92
2018-06-13T06:22:47.599Z,76.66
2018-06-13T06:25:17.819Z,74.78
2018-06-13T06:27:47.816Z,74.66
2018-06-13T06:30:18.015Z,75.71
2018-06-13T06:32:47.918Z,75.06
2018-06-13T06:35:17.851Z,72.65
2018-06-13T06:37:47.880Z,75.26
2018-06-13T06:40:18.237Z,73.76
2018-06-13T06:42:49.175Z,73.89
2018-06-13T06:45:20.272Z,74.64
2018-06-13T06:47:50.579Z,74.21
2018-06-13T06:50:20.657Z,74.87
2018-06-13T06:52:50.584Z,74.99
2018-06-13T06:55:20.725Z,74.60
2018-06-13T06:57:51.865Z,75.08
2018-06-13T07:00:22.079Z,74.09
2018-06-13T07:02:53.175Z,73.50
2018-06-13T07:05:23.422Z,73.15
2018-06-13T07:07:53.432Z,73.32
2018-06-13T07:10:23.363Z,73.08
2018-06-13T07:12:54.373Z,72.55
2018-06-13T07:15:24.533Z,73.14
2018-06-13T07:17:54.755Z,71.42
2018-06-13T07:20:24.846Z,70.88
2018-06-13T07:22:55.067Z,71.62
2018-06-13T07:25:25.405Z,72.16
2018-06-13T07:27:55.419Z,72.71
2018-06-13T07:30:25.400Z,71.51
2018-06-13T07:32:56.000Z,71.37
2018-06-13T07:35:26.103Z,70.72
2018-06-13T07:37:56.421Z,71.54
2018-06-13T07:40:26.763Z,72.02
2018-06-13T07:42:56.994Z,71.04
2018-06-13T07:45:27.054Z,71.37
2018-06-13T07:47:57.493Z,70.73
2018-06-13T07:50:27.728Z,69.69
2018-06-13T07:52:58.076Z,69.82
2018-06-13T07:55:28.117Z,69.40
2018-06-13T07:57:58.308Z,68.65
2018-06-13T08:00:28.565Z,69.75
2018-06-13T08:02:58.443Z,69.35
2018-06-13T08:05:28.651Z,69.56
2018-06-13T08:07:58.733Z,66.80
2018-06-13T08:10:28.740Z,66.42
2018-06-13T08:12:58.994Z,67.06
2018-06-13T08:15:29.188Z,68.08
2018-06-13T08:17:59.256Z,66.75
2018-06-13T08:20:29.358Z,68.37
2018-06-13T08:22:59.529Z,66.12
2018-06-13T08:25:29.796Z,68.34
2018-06-13T08:27:59.947Z,65.74
2018-06-13T08:30:30.354Z,67.18
2018-06-13T08:33:00.432Z,66.01
2018-06-13T08:35:30.356Z,67.18
2018-06-13T08:38:00.463Z,68.53
2018-06-13T08:40:30.584Z,69.22
2018-06-13T08:43:00.558Z,68.45
2018-06-13T08:45:30.731Z,67.98
2018-06-13T08:48:00.686Z,67.62
2018-06-13T08:50:30.862Z,66.58
2018-06-13T08:53:01.114Z,68.21
2018-06-13T08:55:31.359Z,67.30
2018-06-13T08:58:01.439Z,67.81
2018-06-13T09:00:31.528Z,66.25
2018-06-13T09:03:01.560Z,64.96
2018-06-13T09:05:31.619Z,66.78
2018-06-13T09:08:01.941Z,65.43
2018-06-13T09:10:32.443Z,66.22
2018-06-13T09:13:02.655Z,65.80
2018-06-13T09:15:33.877Z,64.73
2018-06-13T09:18:04.058Z,65.74
2018-06-13T09:20:33.835Z,66.83
2018-06-13T09:23:04.768Z,67.45
2018-06-13T09:25:34.936Z,67.15
2018-06-13T09:28:05.127Z,66.14
2018-06-13T09:30:35.040Z,67.61
2018-06-13T09:33:04.962Z,65.57
2018-06-13T09:35:35.709Z,64.87
2018-06-13T09:38:06.130Z,64.09
2018-06-13T09:40:37.310Z,66.62
2018-06-13T09:43:07.485Z,66.59
2018-06-13T09:45:37.673Z,66.29
2018-06-13T09:48:08.221Z,66.85
2018-06-13T09:50:38.308Z,67.19
2018-06-13T09:53:08.479Z,68.14
2018-06-13T09:55:38.469Z,70.06
2018-06-13T09:58:08.529Z,66.64
2018-06-13T10:00:44.391Z,63.99
2018-06-13T10:03:14.719Z,63.34
2018-06-13T10:05:44.961Z,64.50
2018-06-13T10:08:15.031Z,65.23
2018-06-13T10:10:45.463Z,66.22
2018-06-13T10:13:15.684Z,67.76
2018-06-13T10:15:45.657Z,70.22
2018-06-13T10:18:15.614Z,69.70
2018-06-13T10:20:45.759Z,70.54
2018-06-13T10:23:15.706Z,69.65
2018-06-13T10:25:45.760Z,71.07
2018-06-13T10:28:15.971Z,70.81
2018-06-13T10:30:46.088Z,71.67
2018-06-13T10:33:16.226Z,71.82
2018-06-13T10:35:46.674Z,73.19
2018-06-13T10:38:16.771Z,74.13
2018-06-13T10:40:47.031Z,75.89
2018-06-13T10:43:17.175Z,74.21
2018-06-13T10:45:47.294Z,75.09
2018-06-13T10:48:17.396Z,74.05
2018-06-13T10:50:47.466Z,76.03
2018-06-13T10:53:17.496Z,77.73
2018-06-13T10:55:47.819Z,79.17
2018-06-13T10:58:17.839Z,78.83
2018-06-13T11:00:47.909Z,74.54
2018-06-13T11:03:17.760Z,73.31
2018-06-13T11:05:48.053Z,76.88
2018-06-13T11:08:18.212Z,74.24
2018-06-13T11:10:48.375Z,76.16
2018-06-13T11:13:18.595Z,77.65
2018-06-13T11:15:48.712Z,77.64
2018-06-13T11:18:18.734Z,79.73
2018-06-13T11:20:48.616Z,76.23
2018-06-13T11:23:18.746Z,76.66
2018-06-13T11:25:48.720Z,76.83
2018-06-13T11:28:18.968Z,78.85
2018-06-13T11:30:48.918Z,75.95
2018-06-13T11:33:19.390Z,75.92
2018-06-13T11:35:49.381Z,77.36
2018-06-13T11:38:19.413Z,73.56
2018-06-13T11:40:49.503Z,74.60
2018-06-13T11:43:19.454Z,73.23
2018-06-13T11:45:49.383Z,72.08
2018-06-13T11:48:19.738Z,74.57
2018-06-13T11:50:50.208Z,73.73
2018-06-13T11:53:20.235Z,73.50
2018-06-13T11:55:50.346Z,73.18
2018-06-13T11:58:20.890Z,73.37
2018-06-13T12:00:50.880Z,69.87
2018-06-13T12:03:21.924Z,70.80
2018-06-13T12:05:52.269Z,69.11
2018-06-13T12:08:22.390Z,69.59
2018-06-13T12:10:52.989Z,68.86
2018-06-13T12:13:23.352Z,69.53
2018-06-13T12:15:53.807Z,67.79
2018-06-13T12:18:24.017Z,70.52
2018-06-13T12:20:54.171Z,69.67
2018-06-13T12:23:24.559Z,69.39
2018-06-13T12:25:54.860Z,70.73
2018-06-13T12:28:25.114Z,69.77
2018-06-13T12:30:55.118Z,68.17
2018-06-13T12:33:25.320Z,65.95
2018-06-13T12:35:55.541Z,68.04
2018-06-13T12:38:25.715Z,65.58
2018-06-13T12:40:55.985Z,65.30
2018-06-13T12:43:25.964Z,65.12
2018-06-13T12:45:55.916Z,61.71
2018-06-13T12:48:25.851Z,64.12
2018-06-13T12:50:55.782Z,61.23
2018-06-13T12:53:25.747Z,60.90
2018-06-13T12:55:56.060Z,59.50
2018-06-13T12:58:26.213Z,60.08
2018-06-13T13:00:56.259Z,59.44
2018-06-13T13:03:26.291Z,58.99
2018-06-13T13:05:56.587Z,60.71
2018-06-13T13:08:26.849Z,56.17
2018-06-13T13:10:57.046Z,59.68
2018-06-13T13:13:27.148Z,57.38
2018-06-13T13:15:56.985Z,55.51
2018-06-13T13:18:26.986Z,57.02
2018-06-13T13:20:56.944Z,58.50
2018-06-13T13:23:27.071Z,58.00
2018-06-13T13:25:57.217Z,57.91
2018-06-13T13:28:28.541Z,60.34
2018-06-13T13:30:58.599Z,58.38
2018-06-13T13:33:28.773Z,59.56
2018-06-13T13:35:59.764Z,62.10
2018-06-13T13:38:30.105Z,59.30
2018-06-13T13:41:00.223Z,58.43
2018-06-13T13:43:30.504Z,58.46
2018-06-13T13:46:00.793Z,60.74
2018-06-13T13:48:30.865Z,62.04
2018-06-13T13:51:01.109Z,60.78
2018-06-13T13:53:31.196Z,62.32
2018-06-13T13:56:01.311Z,62.08
2018-06-13T13:58:31.702Z,61.75
2018-06-13T14:01:01.977Z,61.78
2018-06-13T14:03:32.184Z,61.98
2018-06-13T14:06:02.636Z,63.63
2018-06-13T14:08:32.784Z,63.58
2018-06-13T14:11:03.042Z,63.96
2018-06-13T14:13:33.139Z,64.79
2018-06-13T14:16:03.314Z,63.03
2018-06-13T14:18:33.738Z,62.44
2018-06-13T14:21:03.696Z,63.05
2018-06-13T14:23:33.761Z,61.71
2018-06-13T14:26:03.842Z,61.27
2018-06-13T14:28:34.493Z,60.67
2018-06-13T14:31:04.622Z,60.49
2018-06-13T14:33:34.840Z,61.42
2018-06-13T14:36:04.875Z,63.66
2018-06-13T14:38:35.366Z,61.74
2018-06-13T14:41:06.045Z,62.08
2018-06-13T14:43:36.245Z,63.16
2018-06-13T14:46:07.502Z,64.46
2018-06-13T14:48:37.718Z,62.02
2018-06-13T14:51:07.739Z,63.28
2018-06-13T14:53:37.974Z,62.92
2018-06-13T14:56:13.138Z,63.00
2018-06-13T14:58:43.424Z,63.43
2018-06-13T15:01:13.566Z,63.89
2018-06-13T15:03:43.901Z,65.96
2018-06-13T15:06:14.202Z,62.74
2018-06-13T15:08:44.386Z,64.32
2018-06-13T15:11:14.833Z,63.17
2018-06-13T15:13:44.992Z,64.80
2018-06-13T15:16:15.039Z,64.37
2018-06-13T15:18:45.500Z,63.47
2018-06-13T15:21:15.643Z,63.27
2018-06-13T15:23:45.640Z,64.25
2018-06-13T15:26:15.779Z,64.50
2018-06-13T15:28:46.019Z,66.35
2018-06-13T15:31:16.105Z,66.14
2018-06-13T15:33:46.221Z,65.58
2018-06-13T15:36:16.525Z,66.65
2018-06-13T15:38:46.812Z,66.96
2018-06-13T15:41:17.004Z,65.86
2018-06-13T15:43:47.194Z,68.53
2018-06-13T15:46:17.372Z,67.57
2018-06-13T15:48:47.937Z,67.53
2018-06-13T15:51:18.019Z,68.54
2018-06-13T15:53:48.128Z,68.37
2018-06-13T15:56:18.078Z,68.58
2018-06-13T15:58:48.409Z,67.69
2018-06-13T16:01:18.673Z,65.22
2018-06-13T16:03:48.704Z,66.32
2018-06-13T16:06:18.855Z,65.92
2018-06-13T16:08:49.083Z,65.79
2018-06-13T16:11:19.395Z,65.24
2018-06-13T16:13:49.297Z,66.62
2018-06-13T16:16:19.397Z,67.54
2018-06-13T16:18:49.396Z,67.47
2018-06-13T16:21:19.958Z,66.67
2018-06-13T16:23:49.992Z,67.38
2018-06-13T16:26:20.131Z,67.34
2018-06-13T16:28:50.612Z,67.31
2018-06-13T16:31:21.391Z,67.23
2018-06-13T16:33:51.425Z,66.22
2018-06-13T16:36:21.634Z,67.76
2018-06-13T16:38:52.646Z,68.94
2018-06-13T16:41:24.526Z,69.79
2018-06-13T16:43:56.033Z,71.58
2018-06-13T16:46:27.298Z,71.12
2018-06-13T16:48:59.040Z,71.61
2018-06-13T16:51:40.057Z,71.56
2018-06-13T16:54:16.759Z,72.35
2018-06-13T16:56:48.813Z,72.77
2018-06-13T16:59:21.845Z,72.50
2018-06-13T17:01:54.535Z,74.14
2018-06-13T17:04:27.371Z,75.11
2018-06-13T17:07:00.212Z,74.58
2018-06-13T17:09:33.061Z,74.95
2018-06-13T17:12:05.779Z,74.75
2018-06-13T17:14:38.779Z,74.25
2018-06-13T17:17:11.507Z,74.63
2018-06-13T17:19:44.538Z,75.63
2018-06-13T17:22:17.600Z,74.58
2018-06-13T17:24:50.431Z,75.37
2018-06-13T17:27:23.307Z,75.92
2018-06-13T17:29:57.055Z,75.45
2018-06-13T17:32:29.554Z,75.67
2018-06-13T17:35:02.495Z,75.93
2018-06-13T17:37:35.246Z,75.80
2018-06-13T17:40:08.305Z,75.49
2018-06-13T17:42:41.226Z,76.52
2018-06-13T17:45:13.968Z,77.26
2018-06-13T17:47:46.869Z,77.88
2018-06-13T17:50:19.871Z,78.18
2018-06-13T17:52:52.870Z,78.24
2018-06-13T17:55:25.991Z,78.22
2018-06-13T17:57:59.082Z,78.22
2018-06-13T18:00:32.033Z,78.18
2018-06-13T18:03:04.827Z,77.73
2018-06-13T18:05:37.588Z,78.13
2018-06-13T18:08:11.828Z,79.63
2018-06-13T18:10:44.838Z,79.20
2018-06-13T18:13:18.568Z,79.85
2018-06-13T18:15:51.844Z,80.25
2018-06-13T18:18:24.603Z,80.04
2018-06-13T18:20:57.707Z,79.80
2018-06-13T18:23:31.585Z,80.83
2018-06-13T18:26:04.470Z,81.35
2018-06-13T18:28:37.615Z,82.18
2018-06-13T18:31:11.685Z,81.82
2018-06-13T18:33:46.258Z,82.92
2018-06-13T18:36:19.787Z,83.35
2018-06-13T18:38:52.384Z,83.74
2018-06-13T18:41:25.214Z,84.08
2018-06-13T18:43:57.955Z,84.47
2018-06-13T18:46:30.551Z,84.91
2018-06-13T18:49:03.621Z,85.73
2018-06-13T18:51:36.562Z,86.16
2018-06-13T18:54:09.310Z,86.28
2018-06-13T18:56:42.362Z,86.79
2018-06-13T18:59:15.406Z,87.14
2018-06-13T19:01:48.193Z,87.43
2018-06-13T19:04:20.904Z,88.21
2018-06-13T19:06:54.096Z,88.23
2018-06-13T19:09:27.344Z,87.98
2018-06-13T19:12:01.185Z,88.24
2018-06-13T19:14:33.757Z,87.86
2018-06-13T19:17:07.760Z,87.65
2018-06-13T19:19:42.105Z,86.79
2018-06-13T19:22:14.981Z,85.99
2018-06-13T19:24:47.912Z,83.96
2018-06-13T19:27:20.964Z,82.89
2018-06-13T19:29:53.934Z,81.99
2018-06-13T19:32:26.913Z,81.01
2018-06-13T19:35:00.033Z,77.33
2018-06-13T19:37:32.875Z,76.96
2018-06-13T19:40:05.805Z,75.43
2018-06-13T19:42:37.425Z,75.02
2018-06-13T19:45:08.659Z,74.71
2018-06-13T19:47:44.272Z,74.10
2018-06-13T19:50:15.219Z,74.06
2018-06-13T19:52:50.424Z,73.68
2018-06-13T19:55:25.432Z,73.55
2018-06-13T19:57:55.556Z,73.60
2018-06-13T20:00:25.703Z,73.89
2018-06-13T20:03:00.766Z,73.36
2018-06-13T20:05:35.796Z,73.91
2018-06-13T20:08:05.955Z,73.75
2018-06-13T20:10:36.209Z,73.77
2018-06-13T20:13:11.346Z,73.98
2018-06-13T20:15:46.280Z,74.53
2018-06-13T20:18:22.316Z,74.72
2018-06-13T20:20:53.269Z,75.38
2018-06-13T20:23:23.669Z,76.47
2018-06-13T20:25:58.637Z,77.33
2018-06-13T20:28:33.499Z,77.75
2018-06-13T20:31:08.794Z,78.42
2018-06-13T20:33:38.903Z,78.47
2018-06-13T20:36:09.236Z,78.57
2018-06-13T20:38:39.562Z,79.58
2018-06-13T20:41:09.893Z,80.01
2018-06-13T20:43:41.008Z,80.73
2018-06-13T20:46:11.429Z,80.74
2018-06-13T20:48:42.727Z,80.62
2018-06-13T20:51:12.950Z,80.91
2018-06-13T20:53:43.151Z,80.91
2018-06-13T20:56:13.392Z,80.79
2018-06-13T20:58:43.662Z,81.01
2018-06-13T21:01:13.728Z,80.30
2018-06-13T21:03:43.808Z,80.34
2018-06-13T21:06:13.974Z,79.04
2018-06-13T21:08:45.358Z,78.82
2018-06-13T21:11:15.639Z,78.68
2018-06-13T21:13:45.990Z,77.96
2018-06-13T21:16:16.556Z,76.88
2018-06-13T21:18:46.932Z,76.85
2018-06-13T21:21:17.114Z,76.56
2018-06-13T21:23:47.309Z,76.18
2018-06-13T21:26:17.603Z,76.16
2018-06-13T21:28:48.857Z,75.98
2018-06-13T21:31:18.872Z,75.61
2018-06-13T21:33:49.104Z,75.61
2018-06-13T21:36:19.556Z,76.10
2018-06-13T21:38:49.460Z,75.53
2018-06-13T21:41:19.638Z,75.77
2018-06-13T21:43:50.428Z,76.35
2018-06-13T21:46:20.590Z,76.34
2018-06-13T21:48:50.559Z,75.36
2018-06-13T21:51:20.700Z,75.11
2018-06-13T21:53:50.920Z,74.78
2018-06-13T21:56:20.991Z,75.13
2018-06-13T21:58:51.164Z,74.86
2018-06-13T22:01:21.373Z,75.56
2018-06-13T22:03:51.727Z,74.67
2018-06-13T22:06:22.845Z,75.48
2018-06-13T22:08:52.774Z,75.55
2018-06-13T22:11:22.789Z,74.66
2018-06-13T22:13:53.066Z,75.44
2018-06-13T22:16:23.232Z,75.63
2018-06-13T22:18:53.491Z,75.72
2018-06-13T22:21:23.732Z,75.62
2018-06-13T22:23:53.751Z,75.76
2018-06-13T22:26:23.970Z,75.74
2018-06-13T22:28:54.137Z,75.87
2018-06-13T22:31:24.145Z,76.22
2018-06-13T22:33:54.350Z,76.44
2018-06-13T22:36:24.364Z,77.47
2018-06-13T22:38:54.222Z,78.47
2018-06-13T22:41:24.290Z,78.99
2018-06-13T22:43:54.577Z,78.87
2018-06-13T22:46:24.741Z,79.70
2018-06-13T22:48:54.731Z,79.44
2018-06-13T22:51:25.992Z,79.39
2018-06-13T22:53:56.252Z,78.99
2018-06-13T22:56:26.792Z,80.03
2018-06-13T22:58:57.029Z,79.86
2018-06-13T23:01:27.267Z,79.94
2018-06-13T23:03:57.182Z,80.60
2018-06-13T23:06:27.441Z,81.11
2018-06-13T23:08:58.642Z,81.12
2018-06-13T23:11:28.786Z,80.69
2018-06-13T23:14:00.032Z,80.96
2018-06-13T23:16:30.180Z,80.73
2018-06-13T23:19:00.272Z,80.56
2018-06-13T23:21:30.501Z,80.56
2018-06-13T23:24:00.343Z,80.58
2018-06-13T23:26:30.414Z,81.13
2018-06-13T23:29:00.691Z,81.14
2018-06-13T23:31:30.763Z,81.34
2018-06-13T23:34:01.148Z,81.74
2018-06-13T23:36:31.296Z,82.31
2018-06-13T23:39:01.403Z,82.25
2018-06-13T23:41:31.427Z,82.23
2018-06-13T23:44:01.496Z,82.00
2018-06-13T23:46:31.811Z,81.99
2018-06-13T23:49:01.821Z,81.62
2018-06-13T23:51:31.721Z,81.74
2018-06-13T23:54:01.865Z,81.76
2018-06-13T23:56:31.712Z,81.56
2018-06-13T23:59:01.829Z,81.55
